sensor_id;sensor_type;location;lat;lon;timestamp;temperature;humidity
21807;DHT22;11065;50.786;7.840;2023-05-07T00:01:37;17.20;50.60
21807;DHT22;11065;50.786;7.840;2023-05-07T00:04:06;17.20;50.70
21807;DHT22;11065;50.786;7.840;2023-05-07T00:06:34;17.20;50.80
21807;DHT22;11065;50.786;7.840;2023-05-07T00:09:02;17.20;50.90
21807;DHT22;11065;50.786;7.840;2023-05-07T00:11:31;17.20;51.00
21807;DHT22;11065;50.786;7.840;2023-05-07T00:14:02;17.10;51.00
21807;DHT22;11065;50.786;7.840;2023-05-07T00:16:30;17.10;51.10
21807;DHT22;11065;50.786;7.840;2023-05-07T00:18:58;17.10;51.10
21807;DHT22;11065;50.786;7.840;2023-05-07T00:21:26;17.10;51.10
21807;DHT22;11065;50.786;7.840;2023-05-07T00:23:54;17.10;51.20
21807;DHT22;11065;50.786;7.840;2023-05-07T00:26:22;17.10;51.30
21807;DHT22;11065;50.786;7.840;2023-05-07T00:28:51;17.10;51.40
21807;DHT22;11065;50.786;7.840;2023-05-07T00:31:20;17.10;51.40
21807;DHT22;11065;50.786;7.840;2023-05-07T00:33:48;17.10;51.40
21807;DHT22;11065;50.786;7.840;2023-05-07T00:36:16;17.10;51.40
21807;DHT22;11065;50.786;7.840;2023-05-07T00:38:44;17.10;51.50
21807;DHT22;11065;50.786;7.840;2023-05-07T00:41:12;17.00;51.50
21807;DHT22;11065;50.786;7.840;2023-05-07T00:43:40;17.10;51.50
21807;DHT22;11065;50.786;7.840;2023-05-07T00:46:08;17.00;51.60
21807;DHT22;11065;50.786;7.840;2023-05-07T00:48:38;17.00;51.60
21807;DHT22;11065;50.786;7.840;2023-05-07T00:51:06;17.00;51.70
21807;DHT22;11065;50.786;7.840;2023-05-07T00:53:35;17.00;51.70
21807;DHT22;11065;50.786;7.840;2023-05-07T00:56:03;17.00;51.80
21807;DHT22;11065;50.786;7.840;2023-05-07T00:58:33;17.00;51.90
21807;DHT22;11065;50.786;7.840;2023-05-07T01:01:02;17.00;51.90
21807;DHT22;11065;50.786;7.840;2023-05-07T01:03:30;17.00;52.00
21807;DHT22;11065;50.786;7.840;2023-05-07T01:06:01;17.00;52.00
21807;DHT22;11065;50.786;7.840;2023-05-07T01:08:30;16.90;52.20
21807;DHT22;11065;50.786;7.840;2023-05-07T01:10:59;16.90;52.10
21807;DHT22;11065;50.786;7.840;2023-05-07T01:13:28;16.90;52.20
21807;DHT22;11065;50.786;7.840;2023-05-07T01:15:56;16.90;52.30
21807;DHT22;11065;50.786;7.840;2023-05-07T01:18:24;16.90;52.30
21807;DHT22;11065;50.786;7.840;2023-05-07T01:20:54;16.90;52.40
21807;DHT22;11065;50.786;7.840;2023-05-07T01:23:25;16.90;52.50
21807;DHT22;11065;50.786;7.840;2023-05-07T01:25:53;16.90;52.60
21807;DHT22;11065;50.786;7.840;2023-05-07T01:28:25;16.90;52.60
21807;DHT22;11065;50.786;7.840;2023-05-07T01:30:59;16.90;52.60
21807;DHT22;11065;50.786;7.840;2023-05-07T01:33:32;16.90;52.70
21807;DHT22;11065;50.786;7.840;2023-05-07T01:36:01;16.90;52.80
21807;DHT22;11065;50.786;7.840;2023-05-07T01:38:35;16.90;52.70
21807;DHT22;11065;50.786;7.840;2023-05-07T01:41:04;16.80;52.70
21807;DHT22;11065;50.786;7.840;2023-05-07T01:43:33;16.90;52.80
21807;DHT22;11065;50.786;7.840;2023-05-07T01:46:01;16.90;52.80
21807;DHT22;11065;50.786;7.840;2023-05-07T01:48:30;16.80;52.80
21807;DHT22;11065;50.786;7.840;2023-05-07T01:51:01;16.90;52.90
21807;DHT22;11065;50.786;7.840;2023-05-07T01:53:37;16.90;53.00
21807;DHT22;11065;50.786;7.840;2023-05-07T01:56:06;16.90;53.20
21807;DHT22;11065;50.786;7.840;2023-05-07T01:58:36;16.80;52.90
21807;DHT22;11065;50.786;7.840;2023-05-07T02:01:04;16.80;53.00
21807;DHT22;11065;50.786;7.840;2023-05-07T02:03:33;16.90;53.10
21807;DHT22;11065;50.786;7.840;2023-05-07T02:06:08;16.80;53.00
21807;DHT22;11065;50.786;7.840;2023-05-07T02:08:39;16.80;53.10
21807;DHT22;11065;50.786;7.840;2023-05-07T02:11:09;16.80;53.20
21807;DHT22;11065;50.786;7.840;2023-05-07T02:13:37;16.80;53.20
21807;DHT22;11065;50.786;7.840;2023-05-07T02:16:06;16.80;53.20
21807;DHT22;11065;50.786;7.840;2023-05-07T02:18:35;16.80;53.20
21807;DHT22;11065;50.786;7.840;2023-05-07T02:21:03;16.80;53.30
21807;DHT22;11065;50.786;7.840;2023-05-07T02:23:31;16.80;53.30
21807;DHT22;11065;50.786;7.840;2023-05-07T02:26:03;16.80;53.40
21807;DHT22;11065;50.786;7.840;2023-05-07T02:28:31;16.80;53.40
21807;DHT22;11065;50.786;7.840;2023-05-07T02:31:04;16.80;53.40
21807;DHT22;11065;50.786;7.840;2023-05-07T02:33:32;16.80;53.50
21807;DHT22;11065;50.786;7.840;2023-05-07T02:36:07;16.80;53.50
21807;DHT22;11065;50.786;7.840;2023-05-07T02:38:40;16.80;53.80
21807;DHT22;11065;50.786;7.840;2023-05-07T02:41:10;16.80;53.50
21807;DHT22;11065;50.786;7.840;2023-05-07T02:43:38;16.80;53.70
21807;DHT22;11065;50.786;7.840;2023-05-07T02:46:09;16.80;53.70
21807;DHT22;11065;50.786;7.840;2023-05-07T02:48:41;16.80;53.80
21807;DHT22;11065;50.786;7.840;2023-05-07T02:51:09;16.80;53.60
21807;DHT22;11065;50.786;7.840;2023-05-07T02:53:39;16.80;53.60
21807;DHT22;11065;50.786;7.840;2023-05-07T02:56:07;16.80;54.10
21807;DHT22;11065;50.786;7.840;2023-05-07T02:58:37;16.80;53.80
21807;DHT22;11065;50.786;7.840;2023-05-07T03:01:06;16.80;53.80
21807;DHT22;11065;50.786;7.840;2023-05-07T03:03:39;16.80;53.80
21807;DHT22;11065;50.786;7.840;2023-05-07T03:06:07;16.80;53.90
21807;DHT22;11065;50.786;7.840;2023-05-07T03:08:35;16.80;53.90
21807;DHT22;11065;50.786;7.840;2023-05-07T03:11:04;16.80;53.90
21807;DHT22;11065;50.786;7.840;2023-05-07T03:13:32;16.80;53.90
21807;DHT22;11065;50.786;7.840;2023-05-07T03:16:01;16.80;53.90
21807;DHT22;11065;50.786;7.840;2023-05-07T03:18:29;16.80;54.00
21807;DHT22;11065;50.786;7.840;2023-05-07T03:20:57;16.80;54.00
21807;DHT22;11065;50.786;7.840;2023-05-07T03:23:25;16.80;54.00
21807;DHT22;11065;50.786;7.840;2023-05-07T03:25:53;16.80;54.00
21807;DHT22;11065;50.786;7.840;2023-05-07T03:28:22;16.70;54.00
21807;DHT22;11065;50.786;7.840;2023-05-07T03:30:55;16.80;54.10
21807;DHT22;11065;50.786;7.840;2023-05-07T03:33:25;16.80;54.10
21807;DHT22;11065;50.786;7.840;2023-05-07T03:35:54;16.70;54.10
21807;DHT22;11065;50.786;7.840;2023-05-07T03:38:24;16.70;54.10
21807;DHT22;11065;50.786;7.840;2023-05-07T03:40:52;16.70;54.10
21807;DHT22;11065;50.786;7.840;2023-05-07T03:43:21;16.70;54.20
21807;DHT22;11065;50.786;7.840;2023-05-07T03:45:56;16.70;54.20
21807;DHT22;11065;50.786;7.840;2023-05-07T03:48:28;16.70;54.20
21807;DHT22;11065;50.786;7.840;2023-05-07T03:50:58;16.70;54.30
21807;DHT22;11065;50.786;7.840;2023-05-07T03:53:30;16.70;54.30
21807;DHT22;11065;50.786;7.840;2023-05-07T03:55:59;16.70;54.30
21807;DHT22;11065;50.786;7.840;2023-05-07T03:58:30;16.80;54.40
21807;DHT22;11065;50.786;7.840;2023-05-07T04:01:04;16.70;54.40
21807;DHT22;11065;50.786;7.840;2023-05-07T04:03:33;16.70;54.40
21807;DHT22;11065;50.786;7.840;2023-05-07T04:06:01;16.70;54.50
21807;DHT22;11065;50.786;7.840;2023-05-07T04:08:32;16.70;54.50
21807;DHT22;11065;50.786;7.840;2023-05-07T04:11:00;16.70;54.50
21807;DHT22;11065;50.786;7.840;2023-05-07T04:13:31;16.70;54.50
21807;DHT22;11065;50.786;7.840;2023-05-07T04:16:02;16.70;54.60
21807;DHT22;11065;50.786;7.840;2023-05-07T04:18:32;16.70;54.60
21807;DHT22;11065;50.786;7.840;2023-05-07T04:21:00;16.70;54.60
21807;DHT22;11065;50.786;7.840;2023-05-07T04:23:29;16.70;54.70
21807;DHT22;11065;50.786;7.840;2023-05-07T04:26:01;16.70;54.80
21807;DHT22;11065;50.786;7.840;2023-05-07T04:28:36;16.70;54.80
21807;DHT22;11065;50.786;7.840;2023-05-07T04:31:05;16.80;54.80
21807;DHT22;11065;50.786;7.840;2023-05-07T04:33:36;16.70;54.80
21807;DHT22;11065;50.786;7.840;2023-05-07T04:36:07;16.70;54.90
21807;DHT22;11065;50.786;7.840;2023-05-07T04:38:43;16.70;54.90
21807;DHT22;11065;50.786;7.840;2023-05-07T04:41:12;16.70;54.90
21807;DHT22;11065;50.786;7.840;2023-05-07T04:43:41;16.70;55.00
21807;DHT22;11065;50.786;7.840;2023-05-07T04:46:11;16.70;54.90
21807;DHT22;11065;50.786;7.840;2023-05-07T04:48:41;16.70;54.90
21807;DHT22;11065;50.786;7.840;2023-05-07T04:51:10;16.70;55.10
21807;DHT22;11065;50.786;7.840;2023-05-07T04:53:39;16.70;55.10
21807;DHT22;11065;50.786;7.840;2023-05-07T04:56:07;16.80;55.20
21807;DHT22;11065;50.786;7.840;2023-05-07T04:58:39;16.80;55.20
21807;DHT22;11065;50.786;7.840;2023-05-07T05:01:08;16.80;55.20
21807;DHT22;11065;50.786;7.840;2023-05-07T05:03:38;16.80;55.70
21807;DHT22;11065;50.786;7.840;2023-05-07T05:06:09;16.80;55.30
21807;DHT22;11065;50.786;7.840;2023-05-07T05:08:37;16.90;55.40
21807;DHT22;11065;50.786;7.840;2023-05-07T05:11:05;16.90;55.40
21807;DHT22;11065;50.786;7.840;2023-05-07T05:13:35;16.90;55.40
21807;DHT22;11065;50.786;7.840;2023-05-07T05:16:11;17.00;55.40
21807;DHT22;11065;50.786;7.840;2023-05-07T05:18:40;17.00;55.30
21807;DHT22;11065;50.786;7.840;2023-05-07T05:21:11;17.00;55.30
21807;DHT22;11065;50.786;7.840;2023-05-07T05:23:41;17.00;55.40
21807;DHT22;11065;50.786;7.840;2023-05-07T05:26:11;17.00;55.40
21807;DHT22;11065;50.786;7.840;2023-05-07T05:28:40;17.10;55.50
21807;DHT22;11065;50.786;7.840;2023-05-07T05:31:08;17.10;55.50
21807;DHT22;11065;50.786;7.840;2023-05-07T05:33:37;17.20;55.50
21807;DHT22;11065;50.786;7.840;2023-05-07T05:36:05;17.20;55.50
21807;DHT22;11065;50.786;7.840;2023-05-07T05:38:37;17.20;55.60
21807;DHT22;11065;50.786;7.840;2023-05-07T05:41:06;17.30;55.60
21807;DHT22;11065;50.786;7.840;2023-05-07T05:43:35;17.30;55.60
21807;DHT22;11065;50.786;7.840;2023-05-07T05:46:03;17.40;55.60
21807;DHT22;11065;50.786;7.840;2023-05-07T05:48:32;17.40;55.70
21807;DHT22;11065;50.786;7.840;2023-05-07T05:51:02;17.50;55.70
21807;DHT22;11065;50.786;7.840;2023-05-07T05:53:30;17.50;55.70
21807;DHT22;11065;50.786;7.840;2023-05-07T05:56:00;17.60;55.70
21807;DHT22;11065;50.786;7.840;2023-05-07T05:58:30;17.70;55.70
21807;DHT22;11065;50.786;7.840;2023-05-07T06:01:01;17.80;55.80
21807;DHT22;11065;50.786;7.840;2023-05-07T06:03:30;17.90;55.70
21807;DHT22;11065;50.786;7.840;2023-05-07T06:06:04;18.00;55.50
21807;DHT22;11065;50.786;7.840;2023-05-07T06:08:32;18.00;55.40
21807;DHT22;11065;50.786;7.840;2023-05-07T06:11:02;18.10;55.30
21807;DHT22;11065;50.786;7.840;2023-05-07T06:13:33;18.20;55.20
21807;DHT22;11065;50.786;7.840;2023-05-07T06:16:01;18.20;55.10
21807;DHT22;11065;50.786;7.840;2023-05-07T06:18:29;18.30;55.00
21807;DHT22;11065;50.786;7.840;2023-05-07T06:20:58;18.40;55.00
21807;DHT22;11065;50.786;7.840;2023-05-07T06:23:29;18.50;54.90
21807;DHT22;11065;50.786;7.840;2023-05-07T06:25:59;18.50;54.80
21807;DHT22;11065;50.786;7.840;2023-05-07T06:28:33;18.60;54.70
21807;DHT22;11065;50.786;7.840;2023-05-07T06:31:12;18.70;54.70
21807;DHT22;11065;50.786;7.840;2023-05-07T06:33:44;18.80;54.70
21807;DHT22;11065;50.786;7.840;2023-05-07T06:36:13;18.80;54.60
21807;DHT22;11065;50.786;7.840;2023-05-07T06:38:41;18.90;54.50
21807;DHT22;11065;50.786;7.840;2023-05-07T06:41:09;19.00;54.40
21807;DHT22;11065;50.786;7.840;2023-05-07T06:43:39;19.10;54.40
21807;DHT22;11065;50.786;7.840;2023-05-07T06:46:24;19.20;54.20
21807;DHT22;11065;50.786;7.840;2023-05-07T06:48:52;19.20;54.20
21807;DHT22;11065;50.786;7.840;2023-05-07T06:51:20;19.30;54.10
21807;DHT22;11065;50.786;7.840;2023-05-07T06:53:48;19.40;54.10
21807;DHT22;11065;50.786;7.840;2023-05-07T06:56:16;19.50;54.00
21807;DHT22;11065;50.786;7.840;2023-05-07T06:58:46;19.60;53.90
21807;DHT22;11065;50.786;7.840;2023-05-07T07:01:14;19.70;53.80
21807;DHT22;11065;50.786;7.840;2023-05-07T07:03:43;19.70;53.70
21807;DHT22;11065;50.786;7.840;2023-05-07T07:06:12;19.80;53.60
21807;DHT22;11065;50.786;7.840;2023-05-07T07:08:40;19.90;53.50
21807;DHT22;11065;50.786;7.840;2023-05-07T07:11:10;20.00;53.50
21807;DHT22;11065;50.786;7.840;2023-05-07T07:13:38;20.10;53.40
21807;DHT22;11065;50.786;7.840;2023-05-07T07:16:08;20.20;53.20
21807;DHT22;11065;50.786;7.840;2023-05-07T07:18:37;20.20;53.50
21807;DHT22;11065;50.786;7.840;2023-05-07T07:21:05;20.30;53.00
21807;DHT22;11065;50.786;7.840;2023-05-07T07:23:34;20.30;53.00
21807;DHT22;11065;50.786;7.840;2023-05-07T07:26:02;20.40;52.80
21807;DHT22;11065;50.786;7.840;2023-05-07T07:28:30;20.50;52.70
21807;DHT22;11065;50.786;7.840;2023-05-07T07:30:58;20.60;52.70
21807;DHT22;11065;50.786;7.840;2023-05-07T07:33:28;20.60;52.60
21807;DHT22;11065;50.786;7.840;2023-05-07T07:35:57;20.70;52.50
21807;DHT22;11065;50.786;7.840;2023-05-07T07:38:25;20.80;52.50
21807;DHT22;11065;50.786;7.840;2023-05-07T07:40:53;20.90;52.40
21807;DHT22;11065;50.786;7.840;2023-05-07T07:43:23;20.90;52.30
21807;DHT22;11065;50.786;7.840;2023-05-07T07:45:51;21.00;52.50
21807;DHT22;11065;50.786;7.840;2023-05-07T07:48:20;21.10;52.50
21807;DHT22;11065;50.786;7.840;2023-05-07T07:50:50;21.20;52.40
21807;DHT22;11065;50.786;7.840;2023-05-07T07:53:19;21.40;52.30
21807;DHT22;11065;50.786;7.840;2023-05-07T07:55:47;21.50;52.10
21807;DHT22;11065;50.786;7.840;2023-05-07T07:58:18;21.60;52.10
21807;DHT22;11065;50.786;7.840;2023-05-07T08:00:47;21.80;52.10
21807;DHT22;11065;50.786;7.840;2023-05-07T08:03:15;21.90;51.90
21807;DHT22;11065;50.786;7.840;2023-05-07T08:05:47;22.10;51.70
21807;DHT22;11065;50.786;7.840;2023-05-07T08:08:18;22.20;51.60
21807;DHT22;11065;50.786;7.840;2023-05-07T08:10:47;22.40;51.50
21807;DHT22;11065;50.786;7.840;2023-05-07T08:13:24;22.50;51.30
21807;DHT22;11065;50.786;7.840;2023-05-07T08:15:53;22.60;51.10
21807;DHT22;11065;50.786;7.840;2023-05-07T08:18:21;22.80;51.00
21807;DHT22;11065;50.786;7.840;2023-05-07T08:20:51;22.90;50.70
21807;DHT22;11065;50.786;7.840;2023-05-07T08:23:23;23.00;50.50
21807;DHT22;11065;50.786;7.840;2023-05-07T08:25:52;23.10;50.30
21807;DHT22;11065;50.786;7.840;2023-05-07T08:28:20;23.20;50.20
21807;DHT22;11065;50.786;7.840;2023-05-07T08:30:48;23.30;50.10
21807;DHT22;11065;50.786;7.840;2023-05-07T08:33:17;23.40;50.00
21807;DHT22;11065;50.786;7.840;2023-05-07T08:35:45;23.50;49.90
21807;DHT22;11065;50.786;7.840;2023-05-07T08:38:14;23.60;49.90
21807;DHT22;11065;50.786;7.840;2023-05-07T08:40:44;23.90;50.10
21807;DHT22;11065;50.786;7.840;2023-05-07T08:43:18;24.10;50.00
21807;DHT22;11065;50.786;7.840;2023-05-07T08:45:49;24.50;50.40
21807;DHT22;11065;50.786;7.840;2023-05-07T08:48:25;24.90;50.90
21807;DHT22;11065;50.786;7.840;2023-05-07T08:51:03;25.40;51.30
21807;DHT22;11065;50.786;7.840;2023-05-07T08:53:33;26.10;51.60
21807;DHT22;11065;50.786;7.840;2023-05-07T08:56:03;26.70;51.00
21807;DHT22;11065;50.786;7.840;2023-05-07T08:58:31;27.40;50.40
21807;DHT22;11065;50.786;7.840;2023-05-07T09:01:00;28.00;50.60
21807;DHT22;11065;50.786;7.840;2023-05-07T09:03:30;28.60;50.20
21807;DHT22;11065;50.786;7.840;2023-05-07T09:05:59;29.30;49.80
21807;DHT22;11065;50.786;7.840;2023-05-07T09:08:28;30.00;49.50
21807;DHT22;11065;50.786;7.840;2023-05-07T09:10:59;30.70;49.10
21807;DHT22;11065;50.786;7.840;2023-05-07T09:13:29;31.50;48.50
21807;DHT22;11065;50.786;7.840;2023-05-07T09:16:09;32.20;47.50
21807;DHT22;11065;50.786;7.840;2023-05-07T09:18:42;32.90;45.60
21807;DHT22;11065;50.786;7.840;2023-05-07T09:21:15;33.50;45.10
21807;DHT22;11065;50.786;7.840;2023-05-07T09:23:45;34.00;44.30
21807;DHT22;11065;50.786;7.840;2023-05-07T09:26:14;34.30;43.90
21807;DHT22;11065;50.786;7.840;2023-05-07T09:28:44;34.70;43.30
21807;DHT22;11065;50.786;7.840;2023-05-07T09:31:13;35.10;42.90
21807;DHT22;11065;50.786;7.840;2023-05-07T09:33:46;35.60;42.90
21807;DHT22;11065;50.786;7.840;2023-05-07T09:36:15;36.20;42.40
21807;DHT22;11065;50.786;7.840;2023-05-07T09:38:44;36.50;41.00
21807;DHT22;11065;50.786;7.840;2023-05-07T09:41:13;36.80;40.00
21807;DHT22;11065;50.786;7.840;2023-05-07T09:43:55;36.90;39.00
21807;DHT22;11065;50.786;7.840;2023-05-07T09:46:30;36.70;37.70
21807;DHT22;11065;50.786;7.840;2023-05-07T09:49:02;36.40;37.10
21807;DHT22;11065;50.786;7.840;2023-05-07T09:51:39;36.00;36.80
21807;DHT22;11065;50.786;7.840;2023-05-07T09:54:10;35.60;35.70
21807;DHT22;11065;50.786;7.840;2023-05-07T09:56:43;35.20;36.30
21807;DHT22;11065;50.786;7.840;2023-05-07T09:59:15;34.70;36.20
21807;DHT22;11065;50.786;7.840;2023-05-07T10:01:45;34.30;36.00
21807;DHT22;11065;50.786;7.840;2023-05-07T10:04:14;33.90;36.30
21807;DHT22;11065;50.786;7.840;2023-05-07T10:06:44;33.60;36.30
21807;DHT22;11065;50.786;7.840;2023-05-07T10:09:14;33.20;36.10
21807;DHT22;11065;50.786;7.840;2023-05-07T10:11:42;32.80;36.00
21807;DHT22;11065;50.786;7.840;2023-05-07T10:14:13;32.50;36.10
21807;DHT22;11065;50.786;7.840;2023-05-07T10:16:43;32.20;36.00
21807;DHT22;11065;50.786;7.840;2023-05-07T10:19:15;31.80;36.10
21807;DHT22;11065;50.786;7.840;2023-05-07T10:21:53;31.50;36.10
21807;DHT22;11065;50.786;7.840;2023-05-07T10:24:25;31.10;36.00
21807;DHT22;11065;50.786;7.840;2023-05-07T10:26:55;30.90;36.30
21807;DHT22;11065;50.786;7.840;2023-05-07T10:29:32;30.50;36.50
21807;DHT22;11065;50.786;7.840;2023-05-07T10:32:15;30.30;36.50
21807;DHT22;11065;50.786;7.840;2023-05-07T10:34:48;30.10;36.70
21807;DHT22;11065;50.786;7.840;2023-05-07T10:37:18;30.00;37.10
21807;DHT22;11065;50.786;7.840;2023-05-07T10:39:46;30.00;37.30
21807;DHT22;11065;50.786;7.840;2023-05-07T10:42:15;29.80;37.40
21807;DHT22;11065;50.786;7.840;2023-05-07T10:44:50;29.70;37.50
21807;DHT22;11065;50.786;7.840;2023-05-07T10:47:24;29.70;37.50
21807;DHT22;11065;50.786;7.840;2023-05-07T10:50:20;29.60;37.40
21807;DHT22;11065;50.786;7.840;2023-05-07T10:53:21;29.50;37.10
21807;DHT22;11065;50.786;7.840;2023-05-07T10:56:29;29.50;37.40
21807;DHT22;11065;50.786;7.840;2023-05-07T10:59:29;29.30;36.80
21807;DHT22;11065;50.786;7.840;2023-05-07T11:02:06;29.20;36.60
21807;DHT22;11065;50.786;7.840;2023-05-07T11:08:00;29.00;37.10
21807;DHT22;11065;50.786;7.840;2023-05-07T11:10:53;29.00;37.60
21807;DHT22;11065;50.786;7.840;2023-05-07T11:13:43;28.90;37.10
21807;DHT22;11065;50.786;7.840;2023-05-07T11:16:32;28.80;37.30
21807;DHT22;11065;50.786;7.840;2023-05-07T11:19:13;28.70;37.10
21807;DHT22;11065;50.786;7.840;2023-05-07T11:21:46;28.50;36.90
21807;DHT22;11065;50.786;7.840;2023-05-07T11:24:47;28.40;36.90
21807;DHT22;11065;50.786;7.840;2023-05-07T11:27:23;28.10;37.00
21807;DHT22;11065;50.786;7.840;2023-05-07T11:29:51;27.90;37.20
21807;DHT22;11065;50.786;7.840;2023-05-07T11:32:22;27.70;37.40
21807;DHT22;11065;50.786;7.840;2023-05-07T11:34:54;27.50;37.90
21807;DHT22;11065;50.786;7.840;2023-05-07T11:37:25;27.40;38.30
21807;DHT22;11065;50.786;7.840;2023-05-07T11:40:05;27.20;38.50
21807;DHT22;11065;50.786;7.840;2023-05-07T11:42:35;27.00;39.00
21807;DHT22;11065;50.786;7.840;2023-05-07T11:45:05;26.90;38.80
21807;DHT22;11065;50.786;7.840;2023-05-07T11:47:34;26.80;39.00
21807;DHT22;11065;50.786;7.840;2023-05-07T11:50:05;26.60;39.20
21807;DHT22;11065;50.786;7.840;2023-05-07T11:52:35;26.50;39.50
21807;DHT22;11065;50.786;7.840;2023-05-07T11:55:03;26.40;39.30
21807;DHT22;11065;50.786;7.840;2023-05-07T11:57:33;26.30;39.30
21807;DHT22;11065;50.786;7.840;2023-05-07T12:00:02;26.20;39.20
21807;DHT22;11065;50.786;7.840;2023-05-07T12:02:40;26.10;39.30
21807;DHT22;11065;50.786;7.840;2023-05-07T12:05:10;25.90;39.20
21807;DHT22;11065;50.786;7.840;2023-05-07T12:07:38;25.80;39.20
21807;DHT22;11065;50.786;7.840;2023-05-07T12:10:07;25.60;39.20
21807;DHT22;11065;50.786;7.840;2023-05-07T12:12:39;25.60;39.40
21807;DHT22;11065;50.786;7.840;2023-05-07T12:15:09;25.50;39.70
21807;DHT22;11065;50.786;7.840;2023-05-07T12:17:38;25.30;39.80
21807;DHT22;11065;50.786;7.840;2023-05-07T12:20:07;25.20;39.90
21807;DHT22;11065;50.786;7.840;2023-05-07T12:22:37;25.20;40.20
21807;DHT22;11065;50.786;7.840;2023-05-07T12:25:06;25.10;40.30
21807;DHT22;11065;50.786;7.840;2023-05-07T12:27:36;25.10;40.40
21807;DHT22;11065;50.786;7.840;2023-05-07T12:30:06;25.00;40.60
21807;DHT22;11065;50.786;7.840;2023-05-07T12:32:36;24.90;40.80
21807;DHT22;11065;50.786;7.840;2023-05-07T12:35:06;24.90;40.90
21807;DHT22;11065;50.786;7.840;2023-05-07T12:37:37;24.80;41.00
21807;DHT22;11065;50.786;7.840;2023-05-07T12:40:05;24.80;41.10
21807;DHT22;11065;50.786;7.840;2023-05-07T12:42:36;24.80;41.20
21807;DHT22;11065;50.786;7.840;2023-05-07T12:45:08;24.70;41.40
21807;DHT22;11065;50.786;7.840;2023-05-07T12:47:37;24.70;41.90
21807;DHT22;11065;50.786;7.840;2023-05-07T12:50:06;24.70;41.40
21807;DHT22;11065;50.786;7.840;2023-05-07T12:52:34;24.70;41.50
21807;DHT22;11065;50.786;7.840;2023-05-07T12:55:09;24.60;41.50
21807;DHT22;11065;50.786;7.840;2023-05-07T12:57:38;24.60;41.60
21807;DHT22;11065;50.786;7.840;2023-05-07T13:00:07;24.60;41.60
21807;DHT22;11065;50.786;7.840;2023-05-07T13:02:38;24.50;41.60
21807;DHT22;11065;50.786;7.840;2023-05-07T13:05:07;24.50;41.70
21807;DHT22;11065;50.786;7.840;2023-05-07T13:07:36;24.40;41.70
21807;DHT22;11065;50.786;7.840;2023-05-07T13:10:06;24.40;41.80
21807;DHT22;11065;50.786;7.840;2023-05-07T13:12:35;24.30;41.80
21807;DHT22;11065;50.786;7.840;2023-05-07T13:15:04;24.30;42.00
21807;DHT22;11065;50.786;7.840;2023-05-07T13:17:32;24.20;42.10
21807;DHT22;11065;50.786;7.840;2023-05-07T13:20:00;24.20;42.20
21807;DHT22;11065;50.786;7.840;2023-05-07T13:22:29;24.10;42.70
21807;DHT22;11065;50.786;7.840;2023-05-07T13:24:57;24.00;42.10
21807;DHT22;11065;50.786;7.840;2023-05-07T13:27:25;23.90;42.20
21807;DHT22;11065;50.786;7.840;2023-05-07T13:29:54;23.90;42.30
21807;DHT22;11065;50.786;7.840;2023-05-07T13:32:22;23.80;42.30
21807;DHT22;11065;50.786;7.840;2023-05-07T13:34:50;23.80;42.50
21807;DHT22;11065;50.786;7.840;2023-05-07T13:37:18;23.70;42.70
21807;DHT22;11065;50.786;7.840;2023-05-07T13:39:46;23.70;42.80
21807;DHT22;11065;50.786;7.840;2023-05-07T13:42:15;23.60;42.90
21807;DHT22;11065;50.786;7.840;2023-05-07T13:44:43;23.60;42.90
21807;DHT22;11065;50.786;7.840;2023-05-07T13:47:13;23.60;43.00
21807;DHT22;11065;50.786;7.840;2023-05-07T13:49:41;23.50;43.20
21807;DHT22;11065;50.786;7.840;2023-05-07T13:52:09;23.50;43.30
21807;DHT22;11065;50.786;7.840;2023-05-07T13:54:38;23.50;43.40
21807;DHT22;11065;50.786;7.840;2023-05-07T13:57:06;23.60;43.50
21807;DHT22;11065;50.786;7.840;2023-05-07T13:59:34;23.60;43.60
21807;DHT22;11065;50.786;7.840;2023-05-07T14:02:02;23.60;43.80
21807;DHT22;11065;50.786;7.840;2023-05-07T14:04:31;23.60;43.80
21807;DHT22;11065;50.786;7.840;2023-05-07T14:07:00;23.70;44.00
21807;DHT22;11065;50.786;7.840;2023-05-07T14:09:27;23.80;44.00
21807;DHT22;11065;50.786;7.840;2023-05-07T14:11:56;23.90;44.10
21807;DHT22;11065;50.786;7.840;2023-05-07T14:14:24;23.90;44.10
21807;DHT22;11065;50.786;7.840;2023-05-07T14:16:52;24.00;44.00
21807;DHT22;11065;50.786;7.840;2023-05-07T14:19:20;24.10;44.00
21807;DHT22;11065;50.786;7.840;2023-05-07T14:21:50;24.10;43.90
21807;DHT22;11065;50.786;7.840;2023-05-07T14:24:18;24.10;43.90
21807;DHT22;11065;50.786;7.840;2023-05-07T14:27:03;24.10;43.80
21807;DHT22;11065;50.786;7.840;2023-05-07T14:29:31;24.10;43.90
21807;DHT22;11065;50.786;7.840;2023-05-07T14:31:59;24.00;44.10
21807;DHT22;11065;50.786;7.840;2023-05-07T14:34:27;24.00;44.40
21807;DHT22;11065;50.786;7.840;2023-05-07T14:36:56;23.90;44.60
21807;DHT22;11065;50.786;7.840;2023-05-07T14:39:24;23.90;44.90
21807;DHT22;11065;50.786;7.840;2023-05-07T14:41:53;23.80;45.00
21807;DHT22;11065;50.786;7.840;2023-05-07T14:44:22;23.70;45.20
21807;DHT22;11065;50.786;7.840;2023-05-07T14:46:51;23.70;45.70
21807;DHT22;11065;50.786;7.840;2023-05-07T14:49:19;23.60;45.50
21807;DHT22;11065;50.786;7.840;2023-05-07T14:51:47;23.50;45.40
21807;DHT22;11065;50.786;7.840;2023-05-07T14:54:17;23.30;45.40
21807;DHT22;11065;50.786;7.840;2023-05-07T14:56:45;23.30;45.60
21807;DHT22;11065;50.786;7.840;2023-05-07T14:59:13;23.20;45.50
21807;DHT22;11065;50.786;7.840;2023-05-07T15:01:42;23.10;45.60
21807;DHT22;11065;50.786;7.840;2023-05-07T15:04:12;23.00;45.60
21807;DHT22;11065;50.786;7.840;2023-05-07T15:06:41;22.80;45.80
21807;DHT22;11065;50.786;7.840;2023-05-07T15:09:09;22.80;45.90
21807;DHT22;11065;50.786;7.840;2023-05-07T15:11:39;22.70;46.10
21807;DHT22;11065;50.786;7.840;2023-05-07T15:14:07;22.60;46.00
21807;DHT22;11065;50.786;7.840;2023-05-07T15:16:35;22.50;46.40
21807;DHT22;11065;50.786;7.840;2023-05-07T15:19:03;22.30;46.50
21807;DHT22;11065;50.786;7.840;2023-05-07T15:21:31;22.20;46.80
21807;DHT22;11065;50.786;7.840;2023-05-07T15:24:01;22.20;47.00
21807;DHT22;11065;50.786;7.840;2023-05-07T15:26:29;22.10;47.30
21807;DHT22;11065;50.786;7.840;2023-05-07T15:28:58;22.00;47.60
21807;DHT22;11065;50.786;7.840;2023-05-07T15:31:26;21.90;48.00
21807;DHT22;11065;50.786;7.840;2023-05-07T15:33:56;21.90;48.10
21807;DHT22;11065;50.786;7.840;2023-05-07T15:36:24;21.80;48.10
21807;DHT22;11065;50.786;7.840;2023-05-07T15:38:52;21.80;48.20
21807;DHT22;11065;50.786;7.840;2023-05-07T15:41:20;21.70;48.30
21807;DHT22;11065;50.786;7.840;2023-05-07T15:43:50;21.70;48.40
21807;DHT22;11065;50.786;7.840;2023-05-07T15:46:20;21.60;48.50
21807;DHT22;11065;50.786;7.840;2023-05-07T15:48:48;21.50;48.60
21807;DHT22;11065;50.786;7.840;2023-05-07T15:51:16;21.50;48.50
21807;DHT22;11065;50.786;7.840;2023-05-07T15:53:44;21.40;48.70